createdAt,value
2023-01-29T00:02:10.378Z,71.66
2023-01-29T00:04:37.373Z,71.88
2023-01-29T00:07:04.325Z,71.84
2023-01-29T00:09:32.100Z,71.58
2023-01-29T00:11:59.064Z,71.53
2023-01-29T00:14:27.634Z,71.57
2023-01-29T00:16:55.054Z,71.55
2023-01-29T00:19:22.016Z,71.82
2023-01-29T00:21:48.931Z,71.97
2023-01-29T00:24:15.875Z,71.54
2023-01-29T00:26:43.280Z,71.77
2023-01-29T00:29:10.267Z,71.95
2023-01-29T00:31:37.439Z,71.67
2023-01-29T00:34:04.401Z,72.15
2023-01-29T00:36:31.375Z,71.88
2023-01-29T00:39:02.876Z,72.11
2023-01-29T00:41:50.479Z,72.21
2023-01-29T00:44:36.825Z,72.15
2023-01-29T00:47:04.758Z,72.00
2023-01-29T00:49:31.802Z,72.23
2023-01-29T00:52:17.248Z,71.98
2023-01-29T00:54:44.129Z,72.13
2023-01-29T00:57:11.204Z,72.37
2023-01-29T00:59:38.303Z,72.11
2023-01-29T01:02:23.807Z,72.36
2023-01-29T01:04:50.802Z,72.54
2023-01-29T01:07:17.788Z,72.53
2023-01-29T01:10:03.244Z,72.63
2023-01-29T01:12:30.321Z,72.75
2023-01-29T01:14:57.965Z,72.56
2023-01-29T01:17:25.216Z,72.54
2023-01-29T01:19:52.169Z,72.95
2023-01-29T01:22:19.985Z,72.82
2023-01-29T01:24:46.873Z,72.98
2023-01-29T01:27:14.241Z,72.78
2023-01-29T01:29:41.121Z,73.07
2023-01-29T01:32:08.232Z,73.00
2023-01-29T01:34:35.847Z,73.29
2023-01-29T01:37:02.918Z,73.47
2023-01-29T01:39:30.038Z,73.69
2023-01-29T01:41:57.051Z,73.77
2023-01-29T01:44:56.278Z,73.56
2023-01-29T01:47:50.291Z,74.00
2023-01-29T01:50:38.499Z,73.70
2023-01-29T01:53:09.575Z,74.07
2023-01-29T01:55:39.441Z,74.07
2023-01-29T01:58:12.872Z,74.14
2023-01-29T02:00:40.180Z,74.54
2023-01-29T02:03:26.058Z,74.72
2023-01-29T02:06:13.425Z,74.46
2023-01-29T02:09:34.874Z,74.50
2023-01-29T02:12:06.690Z,74.73
2023-01-29T02:14:38.917Z,74.92
2023-01-29T02:17:11.588Z,74.81
2023-01-29T02:19:54.227Z,75.13
2023-01-29T02:22:42.967Z,75.00
2023-01-29T02:25:48.893Z,75.02
2023-01-29T02:28:31.804Z,75.18
2023-01-29T02:31:06.101Z,75.43
2023-01-29T02:33:39.358Z,75.66
2023-01-29T02:36:29.473Z,75.66
2023-01-29T02:39:15.181Z,75.85
2023-01-29T02:42:01.358Z,75.50
2023-01-29T02:44:31.240Z,75.89
2023-01-29T02:47:18.115Z,76.09
2023-01-29T02:50:03.791Z,76.14
2023-01-29T02:52:50.907Z,75.93
2023-01-29T02:55:22.892Z,76.27
2023-01-29T02:57:54.194Z,76.17
2023-01-29T03:00:22.897Z,76.18
2023-01-29T03:03:09.362Z,76.05
2023-01-29T03:06:08.055Z,76.35
2023-01-29T03:08:45.566Z,76.53
2023-01-29T03:11:15.287Z,76.57
2023-01-29T03:13:56.936Z,76.75
2023-01-29T03:16:30.466Z,76.72
2023-01-29T03:19:02.552Z,77.02
2023-01-29T03:21:53.404Z,76.81
2023-01-29T03:25:17.694Z,76.91
2023-01-29T03:28:10.049Z,77.30
2023-01-29T03:31:06.687Z,77.04
2023-01-29T03:33:55.005Z,76.92
2023-01-29T03:36:37.909Z,77.42
2023-01-29T03:39:09.131Z,77.39
2023-01-29T03:41:40.096Z,77.24
2023-01-29T03:44:34.545Z,77.38
2023-01-29T03:47:15.144Z,77.29
2023-01-29T03:49:56.698Z,77.57
2023-01-29T03:52:29.278Z,77.84
2023-01-29T03:55:19.391Z,77.77
2023-01-29T03:58:06.554Z,77.86
2023-01-29T04:00:53.095Z,77.86
2023-01-29T04:03:30.510Z,78.16
2023-01-29T04:06:09.744Z,77.69
2023-01-29T04:09:20.400Z,77.90
2023-01-29T04:11:50.913Z,78.17
2023-01-29T04:14:19.129Z,77.85
2023-01-29T04:16:53.799Z,78.21
2023-01-29T04:19:41.320Z,78.18
2023-01-29T04:22:31.804Z,78.36
2023-01-29T04:25:02.797Z,78.23
2023-01-29T04:27:59.392Z,78.15
2023-01-29T04:30:52.850Z,78.25
2023-01-29T04:33:26.182Z,78.15
2023-01-29T04:36:18.194Z,78.28
2023-01-29T04:38:52.120Z,78.36
2023-01-29T04:41:34.431Z,78.32
2023-01-29T04:44:32.379Z,78.24
2023-01-29T04:47:18.331Z,78.38
2023-01-29T04:50:06.841Z,78.86
2023-01-29T04:52:55.043Z,78.72
2023-01-29T04:55:32.773Z,78.90
2023-01-29T04:58:19.935Z,78.94
2023-01-29T05:00:49.363Z,78.59
2023-01-29T05:03:16.907Z,78.70
2023-01-29T05:05:46.601Z,78.78
2023-01-29T05:08:16.380Z,78.81
2023-01-29T05:10:43.508Z,78.66
2023-01-29T05:13:13.543Z,78.99
2023-01-29T05:16:06.924Z,78.82
2023-01-29T05:18:34.088Z,78.88
2023-01-29T05:21:04.392Z,78.83
2023-01-29T05:23:31.376Z,79.02
2023-01-29T05:25:58.285Z,79.00
2023-01-29T05:28:25.326Z,79.17
2023-01-29T05:30:55.210Z,78.90
2023-01-29T05:33:31.946Z,78.90
2023-01-29T05:35:59.865Z,79.27
2023-01-29T05:38:26.864Z,79.48
2023-01-29T05:40:54.511Z,79.39
2023-01-29T05:43:25.085Z,79.55
2023-01-29T05:46:00.167Z,79.29
2023-01-29T05:48:32.502Z,79.27
2023-01-29T05:51:03.777Z,79.23
2023-01-29T05:53:31.269Z,79.37
2023-01-29T05:56:01.596Z,79.53
2023-01-29T05:58:30.206Z,79.43
2023-01-29T06:00:57.054Z,79.42
2023-01-29T06:03:23.950Z,79.62
2023-01-29T06:05:50.803Z,79.75
2023-01-29T06:08:17.755Z,79.82
2023-01-29T06:10:44.597Z,79.64
2023-01-29T06:13:11.593Z,79.79
2023-01-29T06:15:41.283Z,79.78
2023-01-29T06:18:08.495Z,79.60
2023-01-29T06:20:35.645Z,80.16
2023-01-29T06:23:02.617Z,79.81
2023-01-29T06:25:29.509Z,80.26
2023-01-29T06:27:59.321Z,79.89
2023-01-29T06:30:28.242Z,80.03
2023-01-29T06:32:59.081Z,80.27
2023-01-29T06:35:26.212Z,80.15
2023-01-29T06:37:53.242Z,80.07
2023-01-29T06:40:20.275Z,80.45
2023-01-29T06:42:47.196Z,80.12
2023-01-29T06:45:14.257Z,80.28
2023-01-29T06:47:41.363Z,80.28
2023-01-29T06:50:08.936Z,80.36
2023-01-29T06:52:35.838Z,80.46
2023-01-29T06:55:02.816Z,80.47
2023-01-29T06:57:30.254Z,80.26
2023-01-29T06:59:57.126Z,80.86
2023-01-29T07:02:24.233Z,80.85
2023-01-29T07:04:51.212Z,80.92
2023-01-29T07:07:18.581Z,80.96
2023-01-29T07:09:45.601Z,80.72
2023-01-29T07:12:12.481Z,80.46
2023-01-29T07:14:39.424Z,80.73
2023-01-29T07:17:06.326Z,80.84
2023-01-29T07:19:33.287Z,81.03
2023-01-29T07:22:02.669Z,80.76
2023-01-29T07:24:29.794Z,80.66
2023-01-29T07:26:56.964Z,80.83
2023-01-29T07:29:23.829Z,80.93
2023-01-29T07:31:51.006Z,80.86
2023-01-29T07:34:17.984Z,81.23
2023-01-29T07:36:44.936Z,81.16
2023-01-29T07:39:11.902Z,80.84
2023-01-29T07:41:38.971Z,81.28
2023-01-29T07:44:15.669Z,81.18
2023-01-29T07:46:42.653Z,80.87
2023-01-29T07:49:09.611Z,80.89
2023-01-29T07:51:36.605Z,80.93
2023-01-29T07:54:03.567Z,81.18
2023-01-29T07:56:30.530Z,80.83
2023-01-29T07:58:57.616Z,80.77
2023-01-29T08:01:24.671Z,81.03
2023-01-29T08:03:51.697Z,80.81
2023-01-29T08:06:19.390Z,81.06
2023-01-29T08:08:46.399Z,81.36
2023-01-29T08:11:13.564Z,81.17
2023-01-29T08:13:40.501Z,81.39
2023-01-29T08:16:08.280Z,81.04
2023-01-29T08:18:39.090Z,80.93
2023-01-29T08:21:06.185Z,81.33
2023-01-29T08:23:33.117Z,80.83
2023-01-29T08:26:00.257Z,81.05
2023-01-29T08:28:27.389Z,80.98
2023-01-29T08:30:54.887Z,81.29
2023-01-29T08:33:29.936Z,81.30
2023-01-29T08:36:04.413Z,81.23
2023-01-29T08:38:31.473Z,80.98
2023-01-29T08:40:58.589Z,81.21
2023-01-29T08:43:25.687Z,81.34
2023-01-29T08:45:52.779Z,81.20
2023-01-29T08:48:19.873Z,81.13
2023-01-29T08:50:46.687Z,81.01
2023-01-29T08:53:13.619Z,81.32
2023-01-29T08:55:41.084Z,81.30
2023-01-29T08:58:10.116Z,81.08
2023-01-29T09:00:37.076Z,81.19
2023-01-29T09:03:04.505Z,81.38
2023-01-29T09:05:31.547Z,80.86
2023-01-29T09:07:58.787Z,81.31
2023-01-29T09:10:26.546Z,81.17
2023-01-29T09:12:53.445Z,81.16
2023-01-29T09:15:20.630Z,81.36
2023-01-29T09:17:49.648Z,81.23
2023-01-29T09:20:17.118Z,81.13
2023-01-29T09:22:44.406Z,80.97
2023-01-29T09:25:12.009Z,81.45
2023-01-29T09:27:39.404Z,81.23
2023-01-29T09:30:07.069Z,81.12
2023-01-29T09:32:55.438Z,81.36
2023-01-29T09:35:23.360Z,81.05
2023-01-29T09:37:51.238Z,81.45
2023-01-29T09:40:31.698Z,81.40
2023-01-29T09:43:18.155Z,81.11
2023-01-29T09:46:15.389Z,81.18
2023-01-29T09:48:42.571Z,81.02
2023-01-29T09:51:16.142Z,81.08
2023-01-29T09:53:49.738Z,81.27
2023-01-29T09:56:21.042Z,81.49
2023-01-29T09:58:48.469Z,80.83
2023-01-29T10:01:30.816Z,81.18
2023-01-29T10:04:26.573Z,81.26
2023-01-29T10:07:46.412Z,81.01
2023-01-29T10:10:28.020Z,81.27
2023-01-29T10:13:11.759Z,81.07
2023-01-29T10:15:45.575Z,81.06
2023-01-29T10:18:26.819Z,81.04
2023-01-29T10:20:53.925Z,81.18
2023-01-29T10:24:12.034Z,81.42
2023-01-29T10:26:40.895Z,80.87
2023-01-29T10:29:08.644Z,81.14
2023-01-29T10:31:39.986Z,81.19
2023-01-29T10:34:25.133Z,81.35
2023-01-29T10:36:52.178Z,81.18
2023-01-29T10:39:21.484Z,81.13
2023-01-29T10:42:13.230Z,81.22
2023-01-29T10:45:01.546Z,81.30
2023-01-29T10:47:45.513Z,80.85
2023-01-29T10:50:32.836Z,81.30
2023-01-29T10:53:33.693Z,81.06
2023-01-29T10:56:22.375Z,81.17
2023-01-29T10:58:52.607Z,81.22
2023-01-29T11:01:19.632Z,81.19
2023-01-29T11:03:46.702Z,81.17
2023-01-29T11:06:19.712Z,81.11
2023-01-29T11:09:10.048Z,80.85
2023-01-29T11:11:57.227Z,80.90
2023-01-29T11:14:39.218Z,81.15
2023-01-29T11:17:06.115Z,80.86
2023-01-29T11:19:41.686Z,80.92
2023-01-29T11:22:16.675Z,80.95
2023-01-29T11:24:44.356Z,81.01
2023-01-29T11:27:29.754Z,81.02
2023-01-29T11:29:56.739Z,80.71
2023-01-29T11:32:29.719Z,80.92
2023-01-29T11:35:15.489Z,80.96
2023-01-29T11:37:45.010Z,80.72
2023-01-29T11:40:24.302Z,80.74
2023-01-29T11:42:54.252Z,80.70
2023-01-29T11:45:25.925Z,80.75
2023-01-29T11:47:54.419Z,80.93
2023-01-29T11:50:24.538Z,80.63
2023-01-29T11:52:51.825Z,80.95
2023-01-29T11:55:50.145Z,80.90
2023-01-29T11:58:23.637Z,80.71
2023-01-29T12:00:52.078Z,80.78
2023-01-29T12:03:27.514Z,81.00
2023-01-29T12:06:01.031Z,80.76
2023-01-29T12:08:34.650Z,80.76
2023-01-29T12:11:17.133Z,80.68
2023-01-29T12:13:44.041Z,80.53
2023-01-29T12:16:18.333Z,80.52
2023-01-29T12:18:51.368Z,80.87
2023-01-29T12:21:35.530Z,80.66
2023-01-29T12:24:08.501Z,80.85
2023-01-29T12:26:46.904Z,80.75
2023-01-29T12:29:43.108Z,81.03
2023-01-29T12:32:15.319Z,80.93
2023-01-29T12:34:58.299Z,80.65
2023-01-29T12:37:34.611Z,80.48
2023-01-29T12:40:02.340Z,80.68
2023-01-29T12:42:30.067Z,80.79
2023-01-29T12:45:02.020Z,80.56
2023-01-29T12:47:49.006Z,80.64
2023-01-29T12:50:22.217Z,80.84
2023-01-29T12:53:07.435Z,80.86
2023-01-29T12:55:42.085Z,80.72
2023-01-29T12:58:15.086Z,80.53
2023-01-29T13:00:47.281Z,80.89
2023-01-29T13:03:23.516Z,80.78
2023-01-29T13:06:01.094Z,80.72
2023-01-29T13:08:32.460Z,80.77
2023-01-29T13:11:02.335Z,80.81
2023-01-29T13:13:39.032Z,80.89
2023-01-29T13:16:10.364Z,80.64
2023-01-29T13:18:46.959Z,80.74
2023-01-29T13:21:17.867Z,80.92
2023-01-29T13:23:58.280Z,80.62
2023-01-29T13:26:26.734Z,80.95
2023-01-29T13:28:53.913Z,80.84
2023-01-29T13:31:32.114Z,80.85
2023-01-29T13:34:01.742Z,80.55
2023-01-29T13:36:30.370Z,80.78
2023-01-29T13:39:00.590Z,80.86
2023-01-29T13:41:54.074Z,80.89
2023-01-29T13:44:38.322Z,80.46
2023-01-29T13:47:11.348Z,80.72
2023-01-29T13:49:39.191Z,80.38
2023-01-29T13:52:44.637Z,80.91
2023-01-29T13:55:14.489Z,80.72
2023-01-29T13:57:44.649Z,81.08
2023-01-29T14:00:17.386Z,80.86
2023-01-29T14:02:44.551Z,80.93
2023-01-29T14:05:30.014Z,80.77
2023-01-29T14:08:02.041Z,80.94
2023-01-29T14:10:33.687Z,81.01
2023-01-29T14:13:18.583Z,80.93
2023-01-29T14:16:05.911Z,80.98
2023-01-29T14:18:34.769Z,80.80
2023-01-29T14:21:20.810Z,80.97
2023-01-29T14:23:55.288Z,81.10
2023-01-29T14:26:28.338Z,80.86
2023-01-29T14:29:00.883Z,80.82
2023-01-29T14:31:30.149Z,81.04
2023-01-29T14:34:01.963Z,80.94
2023-01-29T14:36:28.947Z,81.09
2023-01-29T14:38:59.325Z,81.02
2023-01-29T14:41:31.776Z,80.87
2023-01-29T14:44:36.314Z,81.02
2023-01-29T14:47:04.832Z,81.02
2023-01-29T14:49:54.298Z,81.02
2023-01-29T14:52:28.800Z,80.88
2023-01-29T14:55:00.286Z,81.20
2023-01-29T14:57:29.223Z,81.04
2023-01-29T14:59:59.215Z,80.81
2023-01-29T15:02:37.206Z,81.06
2023-01-29T15:05:08.981Z,81.05
2023-01-29T15:07:52.083Z,81.09
2023-01-29T15:10:27.640Z,80.67
2023-01-29T15:13:03.753Z,81.27
2023-01-29T15:15:33.700Z,81.06
2023-01-29T15:18:31.531Z,81.16
2023-01-29T15:21:12.098Z,81.43
2023-01-29T15:23:40.794Z,80.81
2023-01-29T15:26:15.138Z,80.89
2023-01-29T15:28:43.533Z,81.10
2023-01-29T15:31:14.115Z,81.22
2023-01-29T15:33:44.315Z,81.09
2023-01-29T15:36:20.305Z,81.07
2023-01-29T15:38:47.417Z,81.36
2023-01-29T15:41:22.071Z,81.32
2023-01-29T15:43:52.339Z,81.50
2023-01-29T15:46:27.075Z,81.19
2023-01-29T15:48:56.349Z,81.58
2023-01-29T15:51:26.142Z,81.28
2023-01-29T15:54:19.276Z,81.50
2023-01-29T15:56:48.809Z,80.96
2023-01-29T15:59:19.606Z,81.33
2023-01-29T16:01:46.872Z,81.17
2023-01-29T16:04:19.255Z,81.20
2023-01-29T16:06:47.834Z,81.47
2023-01-29T16:09:20.549Z,81.26
2023-01-29T16:11:47.795Z,81.15
2023-01-29T16:14:17.624Z,81.11
2023-01-29T16:16:45.313Z,81.35
2023-01-29T16:19:30.053Z,81.29
2023-01-29T16:22:00.751Z,81.20
2023-01-29T16:24:28.856Z,81.35
2023-01-29T16:27:01.340Z,81.32
2023-01-29T16:29:35.576Z,81.16
2023-01-29T16:32:03.482Z,81.54
2023-01-29T16:34:39.578Z,81.35
2023-01-29T16:37:08.899Z,81.38
2023-01-29T16:39:40.004Z,81.57
2023-01-29T16:42:13.269Z,81.39
2023-01-29T16:44:40.978Z,81.09
2023-01-29T16:47:41.199Z,81.21
2023-01-29T16:50:40.490Z,81.65
2023-01-29T16:53:20.937Z,81.63
2023-01-29T16:55:49.830Z,81.41
2023-01-29T16:58:19.877Z,81.57
2023-01-29T17:00:53.586Z,81.15
2023-01-29T17:03:21.323Z,81.50
2023-01-29T17:05:48.682Z,81.75
2023-01-29T17:08:33.494Z,81.43
2023-01-29T17:11:00.919Z,81.56
2023-01-29T17:13:37.129Z,81.68
2023-01-29T17:16:16.430Z,81.55
2023-01-29T17:18:43.446Z,81.73
2023-01-29T17:21:10.304Z,81.58
2023-01-29T17:23:38.101Z,81.50
2023-01-29T17:26:07.025Z,81.58
2023-01-29T17:28:34.763Z,81.76
2023-01-29T17:31:06.564Z,81.61
2023-01-29T17:33:43.624Z,81.82
2023-01-29T17:36:15.017Z,81.67
2023-01-29T17:38:43.524Z,81.60
2023-01-29T17:41:30.036Z,81.66
2023-01-29T17:43:58.263Z,81.91
2023-01-29T17:46:25.663Z,81.77
2023-01-29T17:48:52.920Z,81.75
2023-01-29T17:51:22.448Z,81.72
2023-01-29T17:53:50.818Z,81.74
2023-01-29T17:56:22.602Z,81.38
2023-01-29T17:58:50.682Z,81.78
2023-01-29T18:01:18.472Z,81.73
2023-01-29T18:03:45.462Z,81.57
2023-01-29T18:06:22.861Z,81.69
2023-01-29T18:08:50.028Z,81.72
2023-01-29T18:11:17.120Z,81.61
2023-01-29T18:13:44.172Z,81.50
2023-01-29T18:16:11.342Z,81.66
2023-01-29T18:18:39.125Z,81.83
2023-01-29T18:21:08.030Z,81.81
2023-01-29T18:23:35.160Z,81.70
2023-01-29T18:26:02.337Z,81.63
2023-01-29T18:28:30.185Z,81.71
2023-01-29T18:30:57.459Z,81.71
2023-01-29T18:33:25.985Z,81.71
2023-01-29T18:35:55.121Z,81.64
2023-01-29T18:38:22.731Z,81.90
2023-01-29T18:40:50.374Z,81.72
2023-01-29T18:43:17.916Z,81.69
2023-01-29T18:45:45.071Z,81.97
2023-01-29T18:48:13.981Z,82.00
2023-01-29T18:50:41.721Z,81.44
2023-01-29T18:53:10.201Z,81.80
2023-01-29T18:55:37.528Z,81.90
2023-01-29T18:58:26.896Z,81.59
2023-01-29T19:00:51.912Z,81.74
2023-01-29T19:03:19.564Z,81.85
2023-01-29T19:05:46.685Z,81.67
2023-01-29T19:08:13.790Z,81.77
2023-01-29T19:10:40.752Z,81.60
2023-01-29T19:13:08.183Z,81.68
2023-01-29T19:15:35.427Z,81.82
2023-01-29T19:18:02.804Z,81.85
2023-01-29T19:20:30.041Z,81.61
2023-01-29T19:22:57.199Z,81.77
2023-01-29T19:25:24.129Z,81.75
2023-01-29T19:27:51.351Z,81.68
2023-01-29T19:30:18.581Z,81.66
2023-01-29T19:32:45.565Z,81.65
2023-01-29T19:35:13.051Z,81.66
2023-01-29T19:37:39.913Z,81.48
2023-01-29T19:40:08.251Z,81.52
2023-01-29T19:42:37.483Z,81.72
2023-01-29T19:45:05.582Z,81.68
2023-01-29T19:47:33.894Z,81.57
2023-01-29T19:50:00.854Z,81.46
2023-01-29T19:52:52.266Z,81.57
2023-01-29T19:55:21.283Z,81.38
2023-01-29T19:57:48.512Z,81.68
2023-01-29T20:00:17.580Z,81.40
2023-01-29T20:02:44.757Z,81.58
2023-01-29T20:05:13.097Z,81.39
2023-01-29T20:07:41.211Z,81.49
2023-01-29T20:10:11.468Z,81.43
2023-01-29T20:12:38.701Z,81.37
2023-01-29T20:15:07.430Z,81.53
2023-01-29T20:17:34.389Z,81.51
2023-01-29T20:20:01.349Z,81.59
2023-01-29T20:22:29.924Z,81.53
2023-01-29T20:24:57.561Z,81.65
2023-01-29T20:27:25.095Z,81.67
2023-01-29T20:29:52.929Z,81.59
2023-01-29T20:32:20.489Z,81.27
2023-01-29T20:34:52.218Z,81.48
2023-01-29T20:37:19.859Z,81.51
2023-01-29T20:39:47.493Z,81.58
2023-01-29T20:42:14.919Z,81.32
2023-01-29T20:44:42.293Z,81.56
2023-01-29T20:47:09.288Z,81.66
2023-01-29T20:49:38.489Z,81.38
2023-01-29T20:52:07.654Z,81.61
2023-01-29T20:54:37.376Z,81.29
2023-01-29T20:57:05.106Z,81.46
2023-01-29T20:59:32.494Z,81.34
2023-01-29T21:01:59.473Z,81.07
2023-01-29T21:04:27.745Z,81.24
2023-01-29T21:06:54.883Z,81.19
2023-01-29T21:09:21.785Z,81.38
2023-01-29T21:11:48.799Z,81.43
2023-01-29T21:14:15.887Z,81.21
2023-01-29T21:16:42.998Z,81.29
2023-01-29T21:19:12.849Z,81.26
2023-01-29T21:21:39.834Z,81.17
2023-01-29T21:24:08.907Z,81.08
2023-01-29T21:26:38.487Z,81.31
2023-01-29T21:29:05.777Z,81.23
2023-01-29T21:31:33.790Z,81.27
2023-01-29T21:34:00.792Z,81.46
2023-01-29T21:36:28.009Z,81.11
2023-01-29T21:38:55.033Z,81.25
2023-01-29T21:41:42.004Z,81.21
2023-01-29T21:44:09.132Z,81.24
2023-01-29T21:46:36.259Z,81.28
2023-01-29T21:49:04.453Z,81.27
2023-01-29T21:51:31.313Z,81.19
2023-01-29T21:53:58.285Z,81.14
2023-01-29T21:56:25.218Z,81.01
2023-01-29T21:58:52.207Z,81.15
2023-01-29T22:01:36.774Z,81.06
2023-01-29T22:04:07.753Z,81.25
2023-01-29T22:06:34.685Z,81.23
2023-01-29T22:09:01.583Z,81.14
2023-01-29T22:11:28.861Z,81.15
2023-01-29T22:13:55.689Z,81.11
2023-01-29T22:16:22.609Z,80.97
2023-01-29T22:18:49.835Z,81.28
2023-01-29T22:21:16.672Z,80.74
2023-01-29T22:23:43.671Z,81.23
2023-01-29T22:26:10.761Z,81.02
2023-01-29T22:28:37.746Z,81.21
2023-01-29T22:31:05.299Z,80.93
2023-01-29T22:33:33.658Z,80.71
2023-01-29T22:36:00.907Z,81.05
2023-01-29T22:38:28.096Z,81.02
2023-01-29T22:40:56.095Z,80.97
2023-01-29T22:43:24.293Z,81.13
2023-01-29T22:45:51.806Z,81.20
2023-01-29T22:48:18.707Z,81.13
2023-01-29T22:50:53.863Z,81.10
2023-01-29T22:53:20.872Z,80.93
2023-01-29T22:55:55.626Z,81.05
2023-01-29T22:58:22.600Z,80.89
2023-01-29T23:00:52.530Z,80.95
2023-01-29T23:03:19.393Z,80.69
2023-01-29T23:05:46.407Z,80.71
2023-01-29T23:08:13.460Z,80.74
2023-01-29T23:10:40.436Z,80.94
2023-01-29T23:13:07.341Z,80.79
2023-01-29T23:15:34.270Z,80.89
2023-01-29T23:18:01.275Z,80.88
2023-01-29T23:20:28.328Z,80.84
2023-01-29T23:22:55.581Z,80.78
2023-01-29T23:25:22.536Z,80.96
2023-01-29T23:27:49.465Z,80.87
2023-01-29T23:30:16.903Z,80.81
2023-01-29T23:32:44.027Z,80.93
2023-01-29T23:35:10.876Z,80.86
2023-01-29T23:37:37.710Z,80.65
2023-01-29T23:40:05.131Z,80.56
2023-01-29T23:42:32.009Z,80.97
2023-01-29T23:44:58.840Z,80.96
2023-01-29T23:47:25.916Z,80.93
2023-01-29T23:49:53.279Z,80.79
2023-01-29T23:52:20.399Z,81.04
2023-01-29T23:54:47.246Z,80.91
2023-01-29T23:57:14.211Z,81.13
2023-01-29T23:59:41.241Z,81.06
